sensor_id;sensor_type;location;lat;lon;timestamp;pressure;altitude;pressure_sealevel;temperature;humidity
72685;BME280;61365;52.162;4.500;2024-02-26T00:00:51;99935.19;;;6.72;100.00
72685;BME280;61365;52.162;4.500;2024-02-26T00:03:17;99952.53;;;6.61;100.00
72685;BME280;61365;52.162;4.500;2024-02-26T00:05:43;99941.28;;;6.78;100.00
72685;BME280;61365;52.162;4.500;2024-02-26T00:08:09;99940.38;;;6.74;100.00
72685;BME280;61365;52.162;4.500;2024-02-26T00:10:35;99940.41;;;6.69;100.00
72685;BME280;61365;52.162;4.500;2024-02-26T00:13:01;99946.47;;;6.65;100.00
72685;BME280;61365;52.162;4.500;2024-02-26T00:15:27;99949.94;;;6.67;100.00
72685;BME280;61365;52.162;4.500;2024-02-26T00:17:54;99953.41;;;6.63;100.00
72685;BME280;61365;52.162;4.500;2024-02-26T00:20:20;99959.47;;;6.48;100.00
72685;BME280;61365;52.162;4.500;2024-02-26T00:22:46;99958.63;;;6.49;100.00
72685;BME280;61365;52.162;4.500;2024-02-26T00:25:12;99951.69;;;6.78;100.00
72685;BME280;61365;52.162;4.500;2024-02-26T00:27:38;99948.22;;;6.74;100.00
72685;BME280;61365;52.162;4.500;2024-02-26T00:30:07;99953.41;;;6.57;100.00
72685;BME280;61365;52.162;4.500;2024-02-26T00:32:33;99956.91;;;6.67;100.00
72685;BME280;61365;52.162;4.500;2024-02-26T00:34:59;99976.00;;;6.49;100.00
72685;BME280;61365;52.162;4.500;2024-02-26T00:37:25;99967.28;;;6.36;100.00
72685;BME280;61365;52.162;4.500;2024-02-26T00:39:52;99967.25;;;6.23;100.00
72685;BME280;61365;52.162;4.500;2024-02-26T00:42:19;99968.19;;;6.69;100.00
72685;BME280;61365;52.162;4.500;2024-02-26T00:44:45;99966.41;;;6.35;100.00
72685;BME280;61365;52.162;4.500;2024-02-26T00:47:12;99970.78;;;6.42;100.00
72685;BME280;61365;52.162;4.500;2024-02-26T00:49:38;99972.47;;;6.34;100.00
72685;BME280;61365;52.162;4.500;2024-02-26T00:52:04;99965.56;;;6.38;100.00
72685;BME280;61365;52.162;4.500;2024-02-26T00:54:30;99967.25;;;6.34;100.00
72685;BME280;61365;52.162;4.500;2024-02-26T00:56:56;99967.31;;;6.54;100.00
72685;BME280;61365;52.162;4.500;2024-02-26T00:59:22;99969.00;;;6.27;100.00
72685;BME280;61365;52.162;4.500;2024-02-26T01:01:48;99968.97;;;6.15;100.00
72685;BME280;61365;52.162;4.500;2024-02-26T01:04:14;99975.09;;;6.37;100.00
72685;BME280;61365;52.162;4.500;2024-02-26T01:06:40;99964.66;;;6.17;100.00
72685;BME280;61365;52.162;4.500;2024-02-26T01:09:07;99973.38;;;6.41;100.00
72685;BME280;61365;52.162;4.500;2024-02-26T01:11:33;99981.09;;;6.07;100.00
72685;BME280;61365;52.162;4.500;2024-02-26T01:14:00;99973.34;;;6.24;100.00
72685;BME280;61365;52.162;4.500;2024-02-26T01:16:27;99982.06;;;6.46;100.00
72685;BME280;61365;52.162;4.500;2024-02-26T01:18:55;99976.81;;;6.26;100.00
72685;BME280;61365;52.162;4.500;2024-02-26T01:21:21;100002.00;;;6.25;100.00
72685;BME280;61365;52.162;4.500;2024-02-26T01:23:47;99981.22;;;6.52;100.00
72685;BME280;61365;52.162;4.500;2024-02-26T01:26:13;99989.78;;;6.06;100.00
72685;BME280;61365;52.162;4.500;2024-02-26T01:28:39;99991.56;;;6.25;100.00
72685;BME280;61365;52.162;4.500;2024-02-26T01:31:06;99996.81;;;6.44;100.00
72685;BME280;61365;52.162;4.500;2024-02-26T01:33:34;99991.59;;;6.28;100.00
72685;BME280;61365;52.162;4.500;2024-02-26T01:36:00;99983.81;;;6.38;100.00
72685;BME280;61365;52.162;4.500;2024-02-26T01:38:26;99988.13;;;6.33;100.00
72685;BME280;61365;52.162;4.500;2024-02-26T01:40:53;99982.88;;;6.22;100.00
72685;BME280;61365;52.162;4.500;2024-02-26T01:43:19;99984.66;;;6.46;100.00
72685;BME280;61365;52.162;4.500;2024-02-26T01:45:45;99985.53;;;6.39;100.00
72685;BME280;61365;52.162;4.500;2024-02-26T01:48:11;99992.44;;;6.27;100.00
72685;BME280;61365;52.162;4.500;2024-02-26T01:50:38;99977.69;;;6.33;100.00
72685;BME280;61365;52.162;4.500;2024-02-26T01:53:06;99975.97;;;6.31;100.00
72685;BME280;61365;52.162;4.500;2024-02-26T01:55:33;99976.81;;;6.26;100.00
72685;BME280;61365;52.162;4.500;2024-02-26T01:57:59;99979.44;;;6.35;100.00
72685;BME280;61365;52.162;4.500;2024-02-26T02:00:26;99981.19;;;6.35;100.00
72685;BME280;61365;52.162;4.500;2024-02-26T02:02:52;99980.34;;;6.53;100.00
72685;BME280;61365;52.162;4.500;2024-02-26T02:05:20;99989.84;;;6.30;100.00
72685;BME280;61365;52.162;4.500;2024-02-26T02:07:47;100001.16;;;6.33;100.00
72685;BME280;61365;52.162;4.500;2024-02-26T02:10:15;99995.09;;;6.41;100.00
72685;BME280;61365;52.162;4.500;2024-02-26T02:12:43;99995.94;;;6.28;100.00
72685;BME280;61365;52.162;4.500;2024-02-26T02:15:09;100002.91;;;6.49;100.00
72685;BME280;61365;52.162;4.500;2024-02-26T02:17:36;100000.31;;;6.49;100.00
72685;BME280;61365;52.162;4.500;2024-02-26T02:20:02;99997.66;;;6.35;100.00
72685;BME280;61365;52.162;4.500;2024-02-26T02:22:29;100002.94;;;6.60;100.00
72685;BME280;61365;52.162;4.500;2024-02-26T02:24:57;100014.22;;;6.43;100.00
72685;BME280;61365;52.162;4.500;2024-02-26T02:27:24;100016.75;;;6.31;100.00
72685;BME280;61365;52.162;4.500;2024-02-26T02:29:51;100006.38;;;6.36;100.00
72685;BME280;61365;52.162;4.500;2024-02-26T02:32:18;100021.94;;;6.19;100.00
72685;BME280;61365;52.162;4.500;2024-02-26T02:34:45;100017.66;;;6.35;100.00
72685;BME280;61365;52.162;4.500;2024-02-26T02:37:12;100020.28;;;6.42;100.00
72685;BME280;61365;52.162;4.500;2024-02-26T02:39:38;100022.06;;;6.59;100.00
72685;BME280;61365;52.162;4.500;2024-02-26T02:42:04;100015.00;;;6.16;100.00
72685;BME280;61365;52.162;4.500;2024-02-26T02:44:31;100016.84;;;6.57;100.00
72685;BME280;61365;52.162;4.500;2024-02-26T02:46:57;100018.59;;;6.63;100.00
72685;BME280;61365;52.162;4.500;2024-02-26T02:49:24;100024.66;;;6.53;100.00
72685;BME280;61365;52.162;4.500;2024-02-26T02:51:50;100018.56;;;6.43;100.00
72685;BME280;61365;52.162;4.500;2024-02-26T02:54:16;100022.03;;;6.48;100.00
72685;BME280;61365;52.162;4.500;2024-02-26T02:56:42;100030.69;;;6.36;100.00
72685;BME280;61365;52.162;4.500;2024-02-26T02:59:08;100033.28;;;6.36;100.00
72685;BME280;61365;52.162;4.500;2024-02-26T03:01:34;100039.31;;;6.16;100.00
72685;BME280;61365;52.162;4.500;2024-02-26T03:04:00;100040.16;;;6.15;100.00
72685;BME280;61365;52.162;4.500;2024-02-26T03:06:26;100047.19;;;6.38;100.00
72685;BME280;61365;52.162;4.500;2024-02-26T03:08:54;100049.81;;;6.37;100.00
72685;BME280;61365;52.162;4.500;2024-02-26T03:11:20;100055.06;;;6.51;100.00
72685;BME280;61365;52.162;4.500;2024-02-26T03:13:46;100047.25;;;6.58;100.00
72685;BME280;61365;52.162;4.500;2024-02-26T03:16:13;100044.59;;;6.34;100.00
72685;BME280;61365;52.162;4.500;2024-02-26T03:18:39;100071.53;;;6.36;100.00
72685;BME280;61365;52.162;4.500;2024-02-26T03:21:08;100061.84;;;6.07;100.00
72685;BME280;61365;52.162;4.500;2024-02-26T03:23:34;100057.59;;;6.29;100.00
72685;BME280;61365;52.162;4.500;2024-02-26T03:26:04;100072.25;;;6.04;100.00
72685;BME280;61365;52.162;4.500;2024-02-26T03:28:30;100077.50;;;6.19;100.00
72685;BME280;61365;52.162;4.500;2024-02-26T03:30:59;100068.84;;;6.23;100.00
72685;BME280;61365;52.162;4.500;2024-02-26T03:33:25;100069.72;;;6.22;100.00
72685;BME280;61365;52.162;4.500;2024-02-26T03:35:51;100086.22;;;6.23;100.00
72685;BME280;61365;52.162;4.500;2024-02-26T03:38:18;100084.31;;;5.94;100.00
72685;BME280;61365;52.162;4.500;2024-02-26T03:40:44;100088.63;;;5.92;100.00
72685;BME280;61365;52.162;4.500;2024-02-26T03:43:10;100088.63;;;5.89;100.00
72685;BME280;61365;52.162;4.500;2024-02-26T03:45:36;100087.91;;;6.14;100.00
72685;BME280;61365;52.162;4.500;2024-02-26T03:48:02;100084.47;;;6.15;100.00
72685;BME280;61365;52.162;4.500;2024-02-26T03:50:28;100086.25;;;6.30;100.00
72685;BME280;61365;52.162;4.500;2024-02-26T03:52:55;100094.88;;;6.14;100.00
72685;BME280;61365;52.162;4.500;2024-02-26T03:55:23;100084.53;;;6.29;100.00
72685;BME280;61365;52.162;4.500;2024-02-26T03:57:51;100088.00;;;6.27;100.00
72685;BME280;61365;52.162;4.500;2024-02-26T04:00:17;100095.78;;;6.21;100.00
72685;BME280;61365;52.162;4.500;2024-02-26T04:02:44;100099.25;;;6.20;100.00
72685;BME280;61365;52.162;4.500;2024-02-26T04:05:10;100096.50;;;5.99;100.00
72685;BME280;61365;52.162;4.500;2024-02-26T04:07:37;100106.13;;;6.11;100.00
72685;BME280;61365;52.162;4.500;2024-02-26T04:10:03;100107.84;;;6.09;100.00
72685;BME280;61365;52.162;4.500;2024-02-26T04:12:34;100103.56;;;6.19;100.00
72685;BME280;61365;52.162;4.500;2024-02-26T04:15:00;100106.88;;;5.95;100.00
72685;BME280;61365;52.162;4.500;2024-02-26T04:17:27;100108.69;;;6.00;100.00
72685;BME280;61365;52.162;4.500;2024-02-26T04:19:53;100114.78;;;6.03;100.00
72685;BME280;61365;52.162;4.500;2024-02-26T04:22:19;100107.00;;;6.09;100.00
72685;BME280;61365;52.162;4.500;2024-02-26T04:24:45;100116.44;;;5.91;100.00
72685;BME280;61365;52.162;4.500;2024-02-26T04:27:11;100124.34;;;6.04;100.00
72685;BME280;61365;52.162;4.500;2024-02-26T04:29:37;100132.00;;;5.86;100.00
72685;BME280;61365;52.162;4.500;2024-02-26T04:32:03;100131.22;;;5.97;100.00
72685;BME280;61365;52.162;4.500;2024-02-26T04:34:30;100144.88;;;5.69;100.00
72685;BME280;61365;52.162;4.500;2024-02-26T04:36:56;100154.41;;;5.64;100.00
72685;BME280;61365;52.162;4.500;2024-02-26T04:39:22;100147.56;;;5.79;100.00
72685;BME280;61365;52.162;4.500;2024-02-26T04:41:48;100143.19;;;5.73;100.00
72685;BME280;61365;52.162;4.500;2024-02-26T04:44:14;100159.63;;;5.64;100.00
72685;BME280;61365;52.162;4.500;2024-02-26T04:46:40;100161.28;;;5.56;100.00
72685;BME280;61365;52.162;4.500;2024-02-26T04:49:06;100157.00;;;5.63;100.00
72685;BME280;61365;52.162;4.500;2024-02-26T04:51:33;100155.47;;;5.93;100.00
72685;BME280;61365;52.162;4.500;2024-02-26T04:53:59;100153.75;;;5.95;100.00
72685;BME280;61365;52.162;4.500;2024-02-26T04:56:25;100179.75;;;5.89;100.00
72685;BME280;61365;52.162;4.500;2024-02-26T04:58:51;100159.75;;;5.84;100.00
72685;BME280;61365;52.162;4.500;2024-02-26T05:01:17;100158.09;;;5.94;100.00
72685;BME280;61365;52.162;4.500;2024-02-26T05:03:44;100160.63;;;5.86;100.00
72685;BME280;61365;52.162;4.500;2024-02-26T05:06:10;100174.50;;;5.79;100.00
72685;BME280;61365;52.162;4.500;2024-02-26T05:08:36;100171.94;;;5.87;100.00
72685;BME280;61365;52.162;4.500;2024-02-26T05:11:04;100166.81;;;5.99;100.00
72685;BME280;61365;52.162;4.500;2024-02-26T05:13:31;100164.72;;;5.50;100.00
72685;BME280;61365;52.162;4.500;2024-02-26T05:15:57;100173.59;;;5.80;100.00
72685;BME280;61365;52.162;4.500;2024-02-26T05:18:24;100164.09;;;5.84;100.00
72685;BME280;61365;52.162;4.500;2024-02-26T05:20:50;100171.03;;;5.82;100.00
72685;BME280;61365;52.162;4.500;2024-02-26T05:23:16;100181.53;;;5.91;100.00
72685;BME280;61365;52.162;4.500;2024-02-26T05:25:42;100177.19;;;5.90;100.00
72685;BME280;61365;52.162;4.500;2024-02-26T05:28:10;100179.69;;;5.82;100.00
72685;BME280;61365;52.162;4.500;2024-02-26T05:30:37;100187.50;;;5.76;100.00
72685;BME280;61365;52.162;4.500;2024-02-26T05:33:05;100185.78;;;5.83;100.00
72685;BME280;61365;52.162;4.500;2024-02-26T05:35:31;100190.16;;;5.84;100.00
72685;BME280;61365;52.162;4.500;2024-02-26T05:37:57;100195.22;;;5.67;100.00
72685;BME280;61365;52.162;4.500;2024-02-26T05:40:23;100200.31;;;5.54;100.00
72685;BME280;61365;52.162;4.500;2024-02-26T05:42:50;100199.53;;;5.65;100.00
72685;BME280;61365;52.162;4.500;2024-02-26T05:45:16;100194.28;;;5.60;100.00
72685;BME280;61365;52.162;4.500;2024-02-26T05:47:42;100207.28;;;5.59;100.00
72685;BME280;61365;52.162;4.500;2024-02-26T05:50:09;100201.25;;;5.61;100.00
72685;BME280;61365;52.162;4.500;2024-02-26T05:52:36;100203.91;;;5.70;100.00
72685;BME280;61365;52.162;4.500;2024-02-26T05:55:06;100209.13;;;5.74;100.00
72685;BME280;61365;52.162;4.500;2024-02-26T05:57:33;100217.78;;;5.66;100.00
72685;BME280;61365;52.162;4.500;2024-02-26T06:00:00;100229.22;;;5.84;100.00
72685;BME280;61365;52.162;4.500;2024-02-26T06:02:30;100224.78;;;5.77;100.00
72685;BME280;61365;52.162;4.500;2024-02-26T06:04:56;100223.81;;;5.64;100.00
72685;BME280;61365;52.162;4.500;2024-02-26T06:07:23;100229.03;;;5.67;100.00
72685;BME280;61365;52.162;4.500;2024-02-26T06:09:49;100234.28;;;5.70;100.00
72685;BME280;61365;52.162;4.500;2024-02-26T06:12:15;100248.91;;;5.59;100.00
72685;BME280;61365;52.162;4.500;2024-02-26T06:14:42;100249.84;;;5.64;100.00
72685;BME280;61365;52.162;4.500;2024-02-26T06:17:09;100246.44;;;5.72;100.00
72685;BME280;61365;52.162;4.500;2024-02-26T06:19:35;100246.41;;;5.66;100.00
72685;BME280;61365;52.162;4.500;2024-02-26T06:22:01;100254.25;;;5.71;100.00
72685;BME280;61365;52.162;4.500;2024-02-26T06:24:27;100267.22;;;5.65;100.00
72685;BME280;61365;52.162;4.500;2024-02-26T06:26:53;100267.06;;;5.49;100.00
72685;BME280;61365;52.162;4.500;2024-02-26T06:29:19;100271.59;;;5.69;100.00
72685;BME280;61365;52.162;4.500;2024-02-26T06:31:45;100276.78;;;5.69;100.00
72685;BME280;61365;52.162;4.500;2024-02-26T06:34:13;100268.94;;;5.64;100.00
72685;BME280;61365;52.162;4.500;2024-02-26T06:36:39;100280.00;;;5.43;100.00
72685;BME280;61365;52.162;4.500;2024-02-26T06:39:05;100293.09;;;5.49;100.00
72685;BME280;61365;52.162;4.500;2024-02-26T06:41:31;100287.84;;;5.46;100.00
72685;BME280;61365;52.162;4.500;2024-02-26T06:43:57;100289.59;;;5.47;100.00
72685;BME280;61365;52.162;4.500;2024-02-26T06:46:23;100313.94;;;5.52;100.00
72685;BME280;61365;52.162;4.500;2024-02-26T06:48:50;100305.19;;;5.47;100.00
72685;BME280;61365;52.162;4.500;2024-02-26T06:51:17;100301.66;;;5.44;100.00
72685;BME280;61365;52.162;4.500;2024-02-26T06:53:43;100311.25;;;5.46;100.00
72685;BME280;61365;52.162;4.500;2024-02-26T06:56:09;100314.75;;;5.50;100.00
72685;BME280;61365;52.162;4.500;2024-02-26T06:58:36;100335.41;;;5.34;100.00
72685;BME280;61365;52.162;4.500;2024-02-26T07:01:02;100335.41;;;5.36;100.00
72685;BME280;61365;52.162;4.500;2024-02-26T07:03:28;100324.97;;;5.33;100.00
72685;BME280;61365;52.162;4.500;2024-02-26T07:05:56;100329.22;;;5.24;100.00
72685;BME280;61365;52.162;4.500;2024-02-26T07:08:22;100331.03;;;5.29;100.00
72685;BME280;61365;52.162;4.500;2024-02-26T07:10:48;100354.38;;;5.25;100.00
72685;BME280;61365;52.162;4.500;2024-02-26T07:13:14;100333.63;;;5.32;100.00
72685;BME280;61365;52.162;4.500;2024-02-26T07:15:40;100349.28;;;5.33;100.00
72685;BME280;61365;52.162;4.500;2024-02-26T07:18:06;100342.38;;;5.37;100.00
72685;BME280;61365;52.162;4.500;2024-02-26T07:20:32;100335.38;;;5.31;100.00
72685;BME280;61365;52.162;4.500;2024-02-26T07:22:59;100362.94;;;5.17;100.00
72685;BME280;61365;52.162;4.500;2024-02-26T07:25:25;100398.75;;;5.38;100.00
72685;BME280;61365;52.162;4.500;2024-02-26T07:27:51;100363.28;;;5.43;100.00
72685;BME280;61365;52.162;4.500;2024-02-26T07:30:17;100381.44;;;5.38;100.00
72685;BME280;61365;52.162;4.500;2024-02-26T07:32:43;100384.78;;;5.30;100.00
72685;BME280;61365;52.162;4.500;2024-02-26T07:35:10;100386.50;;;5.31;100.00
72685;BME280;61365;52.162;4.500;2024-02-26T07:37:36;100399.53;;;5.29;100.00
72685;BME280;61365;52.162;4.500;2024-02-26T07:40:03;100379.66;;;5.36;100.00
72685;BME280;61365;52.162;4.500;2024-02-26T07:42:29;100394.31;;;5.28;100.00
72685;BME280;61365;52.162;4.500;2024-02-26T07:44:55;100402.91;;;5.23;100.00
72685;BME280;61365;52.162;4.500;2024-02-26T07:47:21;100389.03;;;5.23;100.00
72685;BME280;61365;52.162;4.500;2024-02-26T07:49:48;100396.06;;;5.30;100.00
72685;BME280;61365;52.162;4.500;2024-02-26T07:52:14;100399.47;;;5.24;100.00
72685;BME280;61365;52.162;4.500;2024-02-26T07:54:40;100402.22;;;5.37;100.00
72685;BME280;61365;52.162;4.500;2024-02-26T07:57:07;100410.88;;;5.34;100.00
72685;BME280;61365;52.162;4.500;2024-02-26T07:59:33;100419.47;;;5.32;100.00
72685;BME280;61365;52.162;4.500;2024-02-26T08:01:59;100409.91;;;5.29;100.00
72685;BME280;61365;52.162;4.500;2024-02-26T08:04:29;100433.53;;;5.43;100.00
72685;BME280;61365;52.162;4.500;2024-02-26T08:06:55;100423.88;;;5.36;100.00
72685;BME280;61365;52.162;4.500;2024-02-26T08:09:21;100426.47;;;5.34;100.00
72685;BME280;61365;52.162;4.500;2024-02-26T08:11:47;100431.78;;;5.44;100.00
72685;BME280;61365;52.162;4.500;2024-02-26T08:14:14;100422.28;;;5.46;100.00
72685;BME280;61365;52.162;4.500;2024-02-26T08:16:40;100424.88;;;5.44;100.00
72685;BME280;61365;52.162;4.500;2024-02-26T08:19:06;100436.91;;;5.36;100.00
72685;BME280;61365;52.162;4.500;2024-02-26T08:21:32;100427.44;;;5.43;100.00
72685;BME280;61365;52.162;4.500;2024-02-26T08:23:58;100435.13;;;5.33;100.00
72685;BME280;61365;52.162;4.500;2024-02-26T08:26:24;100431.03;;;5.49;100.00
72685;BME280;61365;52.162;4.500;2024-02-26T08:28:50;100438.53;;;5.29;100.00
72685;BME280;61365;52.162;4.500;2024-02-26T08:31:17;100463.16;;;5.53;100.00
72685;BME280;61365;52.162;4.500;2024-02-26T08:33:43;100443.03;;;5.41;100.00
72685;BME280;61365;52.162;4.500;2024-02-26T08:36:09;100444.13;;;5.59;100.00
72685;BME280;61365;52.162;4.500;2024-02-26T08:38:37;100462.00;;;5.34;100.00
72685;BME280;61365;52.162;4.500;2024-02-26T08:41:03;100455.28;;;5.48;100.00
72685;BME280;61365;52.162;4.500;2024-02-26T08:43:30;100464.97;;;5.59;100.00
72685;BME280;61365;52.162;4.500;2024-02-26T08:45:59;100465.81;;;5.57;100.00
72685;BME280;61365;52.162;4.500;2024-02-26T08:48:25;100459.75;;;5.59;100.00
72685;BME280;61365;52.162;4.500;2024-02-26T08:50:51;100452.13;;;5.72;100.00
72685;BME280;61365;52.162;4.500;2024-02-26T08:53:17;100454.63;;;5.65;100.00
72685;BME280;61365;52.162;4.500;2024-02-26T08:55:44;100464.84;;;5.49;100.00
72685;BME280;61365;52.162;4.500;2024-02-26T08:58:10;100467.50;;;5.52;100.00
72685;BME280;61365;52.162;4.500;2024-02-26T09:00:36;100468.41;;;5.54;100.00
72685;BME280;61365;52.162;4.500;2024-02-26T09:03:02;100474.66;;;5.70;100.00
72685;BME280;61365;52.162;4.500;2024-02-26T09:05:28;100491.94;;;5.62;100.00
72685;BME280;61365;52.162;4.500;2024-02-26T09:07:54;100478.72;;;5.48;100.00
72685;BME280;61365;52.162;4.500;2024-02-26T09:10:21;100477.31;;;5.74;100.00
72685;BME280;61365;52.162;4.500;2024-02-26T09:12:48;100480.53;;;5.55;100.00
72685;BME280;61365;52.162;4.500;2024-02-26T09:15:14;100494.72;;;5.78;100.00
72685;BME280;61365;52.162;4.500;2024-02-26T09:17:40;100495.53;;;5.74;100.00
72685;BME280;61365;52.162;4.500;2024-02-26T09:20:06;100513.97;;;5.89;100.00
72685;BME280;61365;52.162;4.500;2024-02-26T09:22:35;100506.88;;;5.77;100.00
72685;BME280;61365;52.162;4.500;2024-02-26T09:25:04;100506.78;;;5.71;100.00
72685;BME280;61365;52.162;4.500;2024-02-26T09:27:31;100515.41;;;5.68;100.00
72685;BME280;61365;52.162;4.500;2024-02-26T09:29:57;100518.22;;;5.82;100.00
72685;BME280;61365;52.162;4.500;2024-02-26T09:32:23;100530.41;;;5.86;100.00
72685;BME280;61365;52.162;4.500;2024-02-26T09:34:50;100520.66;;;5.70;100.00
72685;BME280;61365;52.162;4.500;2024-02-26T09:37:16;100525.09;;;5.77;100.00
72685;BME280;61365;52.162;4.500;2024-02-26T09:39:42;100520.81;;;5.81;100.00
72685;BME280;61365;52.162;4.500;2024-02-26T09:42:08;100541.06;;;6.00;100.00
72685;BME280;61365;52.162;4.500;2024-02-26T09:44:37;100545.88;;;5.74;100.00
72685;BME280;61365;52.162;4.500;2024-02-26T09:47:10;100544.25;;;5.82;100.00
72685;BME280;61365;52.162;4.500;2024-02-26T09:49:39;100542.44;;;5.77;100.00
72685;BME280;61365;52.162;4.500;2024-02-26T09:52:05;100540.59;;;5.69;100.00
72685;BME280;61365;52.162;4.500;2024-02-26T09:54:34;100562.53;;;5.85;100.00
72685;BME280;61365;52.162;4.500;2024-02-26T09:57:02;100556.50;;;5.90;100.00
72685;BME280;61365;52.162;4.500;2024-02-26T09:59:30;100561.66;;;5.86;100.00
72685;BME280;61365;52.162;4.500;2024-02-26T10:02:04;100562.47;;;5.82;100.00
72685;BME280;61365;52.162;4.500;2024-02-26T10:04:34;100568.69;;;5.91;100.00
72685;BME280;61365;52.162;4.500;2024-02-26T10:07:01;100568.91;;;6.06;100.00
72685;BME280;61365;52.162;4.500;2024-02-26T10:09:29;100578.47;;;6.06;100.00
72685;BME280;61365;52.162;4.500;2024-02-26T10:11:57;100573.34;;;6.12;100.00
72685;BME280;61365;52.162;4.500;2024-02-26T10:14:25;100584.06;;;6.37;100.00
72685;BME280;61365;52.162;4.500;2024-02-26T10:16:51;100594.22;;;6.16;100.00
72685;BME280;61365;52.162;4.500;2024-02-26T10:19:27;100586.72;;;6.40;100.00
72685;BME280;61365;52.162;4.500;2024-02-26T10:21:58;100590.09;;;6.34;100.00
72685;BME280;61365;52.162;4.500;2024-02-26T10:24:29;100596.28;;;6.41;100.00
72685;BME280;61365;52.162;4.500;2024-02-26T10:26:55;100604.38;;;5.98;100.00
72685;BME280;61365;52.162;4.500;2024-02-26T10:29:23;100611.78;;;6.31;100.00
72685;BME280;61365;52.162;4.500;2024-02-26T10:31:51;100607.44;;;6.32;100.00
72685;BME280;61365;52.162;4.500;2024-02-26T10:34:18;100608.16;;;6.20;100.00
72685;BME280;61365;52.162;4.500;2024-02-26T10:36:45;100621.13;;;6.14;100.00
72685;BME280;61365;52.162;4.500;2024-02-26T10:39:12;100623.88;;;6.26;100.00
72685;BME280;61365;52.162;4.500;2024-02-26T10:41:42;100614.34;;;6.27;100.00
72685;BME280;61365;52.162;4.500;2024-02-26T10:44:09;100618.50;;;6.12;100.00
72685;BME280;61365;52.162;4.500;2024-02-26T10:46:36;100625.00;;;6.45;100.00
72685;BME280;61365;52.162;4.500;2024-02-26T10:49:03;100632.50;;;6.21;100.00
72685;BME280;61365;52.162;4.500;2024-02-26T10:51:31;100641.41;;;6.37;100.00
72685;BME280;61365;52.162;4.500;2024-02-26T10:54:00;100655.28;;;6.36;100.00
72685;BME280;61365;52.162;4.500;2024-02-26T10:56:33;100637.81;;;6.28;100.00
72685;BME280;61365;52.162;4.500;2024-02-26T10:59:00;100644.69;;;6.23;100.00
72685;BME280;61365;52.162;4.500;2024-02-26T11:01:27;100655.22;;;6.29;100.00
72685;BME280;61365;52.162;4.500;2024-02-26T11:03:56;100667.88;;;6.03;100.00
72685;BME280;61365;52.162;4.500;2024-02-26T11:06:24;100672.59;;;6.32;100.00
72685;BME280;61365;52.162;4.500;2024-02-26T11:08:52;100664.91;;;6.41;100.00
72685;BME280;61365;52.162;4.500;2024-02-26T11:11:19;100669.59;;;6.01;100.00
72685;BME280;61365;52.162;4.500;2024-02-26T11:13:47;100679.34;;;6.16;100.00
72685;BME280;61365;52.162;4.500;2024-02-26T11:16:22;100671.53;;;6.16;100.00
72685;BME280;61365;52.162;4.500;2024-02-26T11:18:49;100706.53;;;6.35;100.00
72685;BME280;61365;52.162;4.500;2024-02-26T11:21:18;100693.34;;;6.23;100.00
72685;BME280;61365;52.162;4.500;2024-02-26T11:23:45;100693.31;;;6.21;100.00
72685;BME280;61365;52.162;4.500;2024-02-26T11:26:12;100702.00;;;6.23;100.00
72685;BME280;61365;52.162;4.500;2024-02-26T11:28:42;100695.25;;;6.35;100.00
72685;BME280;61365;52.162;4.500;2024-02-26T11:31:10;100686.38;;;6.23;100.00
72685;BME280;61365;52.162;4.500;2024-02-26T11:33:38;100700.56;;;6.42;100.00
72685;BME280;61365;52.162;4.500;2024-02-26T11:36:11;100699.75;;;6.48;100.00
72685;BME280;61365;52.162;4.500;2024-02-26T11:38:37;100705.06;;;6.53;100.00
72685;BME280;61365;52.162;4.500;2024-02-26T11:41:07;100706.56;;;6.38;100.00
72685;BME280;61365;52.162;4.500;2024-02-26T11:43:52;100688.34;;;6.38;100.00
72685;BME280;61365;52.162;4.500;2024-02-26T11:48:56;100725.00;;;6.51;100.00
72685;BME280;61365;52.162;4.500;2024-02-26T11:51:26;100705.63;;;6.33;100.00
72685;BME280;61365;52.162;4.500;2024-02-26T11:53:54;100708.28;;;6.36;100.00
72685;BME280;61365;52.162;4.500;2024-02-26T11:56:23;100706.38;;;6.24;100.00
72685;BME280;61365;52.162;4.500;2024-02-26T11:58:59;100702.09;;;6.28;100.00
72685;BME280;61365;52.162;4.500;2024-02-26T12:01:36;100714.34;;;6.35;100.00
72685;BME280;61365;52.162;4.500;2024-02-26T12:04:19;100705.34;;;6.76;100.00
72685;BME280;61365;52.162;4.500;2024-02-26T12:09:30;100726.97;;;6.69;100.00
72685;BME280;61365;52.162;4.500;2024-02-26T12:12:04;100727.91;;;6.72;100.00
72685;BME280;61365;52.162;4.500;2024-02-26T12:14:51;100729.56;;;6.66;100.00
72685;BME280;61365;52.162;4.500;2024-02-26T12:17:27;100739.91;;;6.61;100.00
72685;BME280;61365;52.162;4.500;2024-02-26T12:19:53;100728.94;;;6.85;100.00
72685;BME280;61365;52.162;4.500;2024-02-26T12:22:21;100726.53;;;7.04;100.00
72685;BME280;61365;52.162;4.500;2024-02-26T12:24:47;100722.09;;;6.95;100.00
72685;BME280;61365;52.162;4.500;2024-02-26T12:27:13;100743.81;;;6.93;100.00
72685;BME280;61365;52.162;4.500;2024-02-26T12:29:40;100730.78;;;6.93;100.00
72685;BME280;61365;52.162;4.500;2024-02-26T12:32:07;100740.22;;;6.86;100.00
72685;BME280;61365;52.162;4.500;2024-02-26T12:34:33;100738.69;;;7.02;100.00
72685;BME280;61365;52.162;4.500;2024-02-26T12:36:59;100740.53;;;7.11;100.00
72685;BME280;61365;52.162;4.500;2024-02-26T12:39:26;100750.34;;;6.61;100.00
72685;BME280;61365;52.162;4.500;2024-02-26T12:41:53;100742.06;;;6.91;100.00
72685;BME280;61365;52.162;4.500;2024-02-26T12:44:28;100747.38;;;6.99;100.00
72685;BME280;61365;52.162;4.500;2024-02-26T12:47:01;100751.38;;;6.74;100.00
72685;BME280;61365;52.162;4.500;2024-02-26T12:49:31;100756.78;;;6.88;100.00
72685;BME280;61365;52.162;4.500;2024-02-26T12:51:57;100760.34;;;6.95;100.00
72685;BME280;61365;52.162;4.500;2024-02-26T12:54:28;100771.47;;;6.81;100.00
72685;BME280;61365;52.162;4.500;2024-02-26T12:56:57;100755.19;;;7.01;100.00